WI88 weather

St Clare's Hospital Heliport
Weston, Wisconsin, United States

Public forecast

Using degrees Fahrenheit for public forecast. Weather courtesy of forecast.io.

Closest aviation weather report (METAR) to St Clare's Hospital Heliport

Closest report is Wausau Downtown Airport, 3.0 nm (5.5 km) NW. Retrieved 2020/02/21 23:54 UTC (20 minutes ago):

KAUW 212354Z AUTO 25010G18KT 10SM CLR 01/M07 A3007 RMK AO2 PK WND 22027/2321 SLP209 T00061072 10028 21022 56008

Closest aviation forecast (TAF) to St Clare's Hospital Heliport

Closest forecast is Wausau Downtown Airport, 3.0 nm (5.5 km) NW. Retrieved 2020-02-22 00:27 UTC (0 seconds ago):

TAF KAUW 212325Z 2200/2224 25012G20KT P6SM SKC WS020/26045KT FM220400 25008KT P6SM SKC WS016/27035KT FM220600 24005KT P6SM SKC